sensor_id;sensor_type;location;lat;lon;timestamp;temperature;humidity
40534;DHT22;26233;51.894;10.192;2023-07-09T00:00:15;26.30;27.00
40534;DHT22;26233;51.894;10.192;2023-07-09T00:02:44;26.20;27.30
40534;DHT22;26233;51.894;10.192;2023-07-09T00:05:13;26.10;27.20
40534;DHT22;26233;51.894;10.192;2023-07-09T00:07:42;26.00;27.40
40534;DHT22;26233;51.894;10.192;2023-07-09T00:10:15;25.90;27.50
40534;DHT22;26233;51.894;10.192;2023-07-09T00:12:43;25.70;27.60
40534;DHT22;26233;51.894;10.192;2023-07-09T00:15:11;25.70;27.60
40534;DHT22;26233;51.894;10.192;2023-07-09T00:17:41;25.50;27.70
40534;DHT22;26233;51.894;10.192;2023-07-09T00:20:11;25.50;28.00
40534;DHT22;26233;51.894;10.192;2023-07-09T00:22:40;25.40;28.10
40534;DHT22;26233;51.894;10.192;2023-07-09T00:25:18;25.30;28.00
40534;DHT22;26233;51.894;10.192;2023-07-09T00:27:45;25.20;27.90
40534;DHT22;26233;51.894;10.192;2023-07-09T00:30:17;25.20;27.90
40534;DHT22;26233;51.894;10.192;2023-07-09T00:32:48;25.10;28.00
40534;DHT22;26233;51.894;10.192;2023-07-09T00:35:17;25.10;28.10
40534;DHT22;26233;51.894;10.192;2023-07-09T00:37:45;25.00;28.10
40534;DHT22;26233;51.894;10.192;2023-07-09T00:40:17;25.00;28.20
40534;DHT22;26233;51.894;10.192;2023-07-09T00:42:47;24.90;28.30
40534;DHT22;26233;51.894;10.192;2023-07-09T00:45:19;24.90;28.30
40534;DHT22;26233;51.894;10.192;2023-07-09T00:47:52;24.80;28.40
40534;DHT22;26233;51.894;10.192;2023-07-09T00:50:36;24.70;28.50
40534;DHT22;26233;51.894;10.192;2023-07-09T00:53:11;24.70;28.80
40534;DHT22;26233;51.894;10.192;2023-07-09T00:55:44;24.60;28.70
40534;DHT22;26233;51.894;10.192;2023-07-09T00:58:15;24.60;28.60
40534;DHT22;26233;51.894;10.192;2023-07-09T01:00:46;24.50;28.60
40534;DHT22;26233;51.894;10.192;2023-07-09T01:03:27;24.50;28.80
40534;DHT22;26233;51.894;10.192;2023-07-09T01:05:56;24.40;28.90
40534;DHT22;26233;51.894;10.192;2023-07-09T01:08:24;24.40;28.70
40534;DHT22;26233;51.894;10.192;2023-07-09T01:10:56;24.40;28.60
40534;DHT22;26233;51.894;10.192;2023-07-09T01:13:24;24.40;28.80
40534;DHT22;26233;51.894;10.192;2023-07-09T01:15:53;24.40;28.90
40534;DHT22;26233;51.894;10.192;2023-07-09T01:18:22;24.30;28.90
40534;DHT22;26233;51.894;10.192;2023-07-09T01:20:51;24.30;29.00
40534;DHT22;26233;51.894;10.192;2023-07-09T01:23:26;24.20;29.00
40534;DHT22;26233;51.894;10.192;2023-07-09T01:25:54;24.10;29.00
40534;DHT22;26233;51.894;10.192;2023-07-09T01:28:21;24.10;29.10
40534;DHT22;26233;51.894;10.192;2023-07-09T01:30:48;24.00;29.10
40534;DHT22;26233;51.894;10.192;2023-07-09T01:33:20;23.90;29.10
40534;DHT22;26233;51.894;10.192;2023-07-09T01:35:48;23.90;29.20
40534;DHT22;26233;51.894;10.192;2023-07-09T01:38:16;23.80;29.20
40534;DHT22;26233;51.894;10.192;2023-07-09T01:40:45;23.70;29.30
40534;DHT22;26233;51.894;10.192;2023-07-09T01:43:13;23.70;29.40
40534;DHT22;26233;51.894;10.192;2023-07-09T01:45:40;23.60;29.40
40534;DHT22;26233;51.894;10.192;2023-07-09T01:48:07;23.60;29.50
40534;DHT22;26233;51.894;10.192;2023-07-09T01:50:41;23.50;29.60
40534;DHT22;26233;51.894;10.192;2023-07-09T01:53:09;23.50;29.70
40534;DHT22;26233;51.894;10.192;2023-07-09T01:55:39;23.40;29.70
40534;DHT22;26233;51.894;10.192;2023-07-09T01:58:08;23.40;29.80
40534;DHT22;26233;51.894;10.192;2023-07-09T02:00:36;23.40;29.90
40534;DHT22;26233;51.894;10.192;2023-07-09T02:03:07;23.40;29.80
40534;DHT22;26233;51.894;10.192;2023-07-09T02:05:35;23.30;29.80
40534;DHT22;26233;51.894;10.192;2023-07-09T02:08:03;23.30;29.90
40534;DHT22;26233;51.894;10.192;2023-07-09T02:10:30;23.20;29.90
40534;DHT22;26233;51.894;10.192;2023-07-09T02:12:59;23.20;30.00
40534;DHT22;26233;51.894;10.192;2023-07-09T02:15:26;23.10;30.00
40534;DHT22;26233;51.894;10.192;2023-07-09T02:17:53;23.10;30.00
40534;DHT22;26233;51.894;10.192;2023-07-09T02:20:20;23.10;30.20
40534;DHT22;26233;51.894;10.192;2023-07-09T02:22:50;23.10;30.30
40534;DHT22;26233;51.894;10.192;2023-07-09T02:25:17;23.10;30.50
40534;DHT22;26233;51.894;10.192;2023-07-09T02:27:44;23.10;30.50
40534;DHT22;26233;51.894;10.192;2023-07-09T02:30:13;23.10;30.70
40534;DHT22;26233;51.894;10.192;2023-07-09T02:32:40;23.10;30.60
40534;DHT22;26233;51.894;10.192;2023-07-09T02:35:08;23.10;30.50
40534;DHT22;26233;51.894;10.192;2023-07-09T02:37:35;23.10;30.70
40534;DHT22;26233;51.894;10.192;2023-07-09T02:40:03;23.20;30.80
40534;DHT22;26233;51.894;10.192;2023-07-09T02:42:31;23.20;30.80
40534;DHT22;26233;51.894;10.192;2023-07-09T02:44:58;23.20;30.70
40534;DHT22;26233;51.894;10.192;2023-07-09T02:47:26;23.20;30.70
40534;DHT22;26233;51.894;10.192;2023-07-09T02:49:53;23.20;30.80
40534;DHT22;26233;51.894;10.192;2023-07-09T02:52:20;23.30;30.90
40534;DHT22;26233;51.894;10.192;2023-07-09T02:54:47;23.30;31.00
40534;DHT22;26233;51.894;10.192;2023-07-09T02:57:15;23.30;31.00
40534;DHT22;26233;51.894;10.192;2023-07-09T02:59:42;23.30;30.90
40534;DHT22;26233;51.894;10.192;2023-07-09T03:02:09;23.20;30.90
40534;DHT22;26233;51.894;10.192;2023-07-09T03:04:38;23.20;31.00
40534;DHT22;26233;51.894;10.192;2023-07-09T03:07:05;23.10;30.90
40534;DHT22;26233;51.894;10.192;2023-07-09T03:09:32;23.10;31.10
40534;DHT22;26233;51.894;10.192;2023-07-09T03:11:59;23.00;31.60
40534;DHT22;26233;51.894;10.192;2023-07-09T03:14:26;22.90;31.00
40534;DHT22;26233;51.894;10.192;2023-07-09T03:16:54;22.90;31.20
40534;DHT22;26233;51.894;10.192;2023-07-09T03:19:22;22.80;31.30
40534;DHT22;26233;51.894;10.192;2023-07-09T03:21:50;22.80;31.40
40534;DHT22;26233;51.894;10.192;2023-07-09T03:24:17;22.80;31.60
40534;DHT22;26233;51.894;10.192;2023-07-09T03:26:45;22.80;31.70
40534;DHT22;26233;51.894;10.192;2023-07-09T03:29:12;22.70;31.80
40534;DHT22;26233;51.894;10.192;2023-07-09T03:31:39;22.70;31.90
40534;DHT22;26233;51.894;10.192;2023-07-09T03:34:06;22.70;31.90
40534;DHT22;26233;51.894;10.192;2023-07-09T03:36:33;22.70;32.00
40534;DHT22;26233;51.894;10.192;2023-07-09T03:39:04;22.70;32.00
40534;DHT22;26233;51.894;10.192;2023-07-09T03:41:31;22.70;32.10
40534;DHT22;26233;51.894;10.192;2023-07-09T03:43:58;22.70;32.20
40534;DHT22;26233;51.894;10.192;2023-07-09T03:46:25;22.60;32.20
40534;DHT22;26233;51.894;10.192;2023-07-09T03:48:52;22.60;32.20
40534;DHT22;26233;51.894;10.192;2023-07-09T03:51:19;22.50;32.20
40534;DHT22;26233;51.894;10.192;2023-07-09T03:53:46;22.50;32.50
40534;DHT22;26233;51.894;10.192;2023-07-09T03:56:15;22.40;32.50
40534;DHT22;26233;51.894;10.192;2023-07-09T03:58:42;22.40;32.60
40534;DHT22;26233;51.894;10.192;2023-07-09T04:01:09;22.40;32.60
40534;DHT22;26233;51.894;10.192;2023-07-09T04:03:36;22.40;32.90
40534;DHT22;26233;51.894;10.192;2023-07-09T04:06:03;22.40;32.90
40534;DHT22;26233;51.894;10.192;2023-07-09T04:08:30;22.50;33.00
40534;DHT22;26233;51.894;10.192;2023-07-09T04:10:59;22.50;33.20
40534;DHT22;26233;51.894;10.192;2023-07-09T04:13:29;22.50;33.40
40534;DHT22;26233;51.894;10.192;2023-07-09T04:15:56;22.50;33.40
40534;DHT22;26233;51.894;10.192;2023-07-09T04:18:23;22.50;33.40
40534;DHT22;26233;51.894;10.192;2023-07-09T04:20:51;22.50;33.70
40534;DHT22;26233;51.894;10.192;2023-07-09T04:23:19;22.50;33.80
40534;DHT22;26233;51.894;10.192;2023-07-09T04:25:46;22.50;34.00
40534;DHT22;26233;51.894;10.192;2023-07-09T04:28:14;22.60;34.10
40534;DHT22;26233;51.894;10.192;2023-07-09T04:30:47;22.60;34.10
40534;DHT22;26233;51.894;10.192;2023-07-09T04:33:15;22.70;34.60
40534;DHT22;26233;51.894;10.192;2023-07-09T04:35:44;22.70;34.30
40534;DHT22;26233;51.894;10.192;2023-07-09T04:38:12;22.80;34.50
40534;DHT22;26233;51.894;10.192;2023-07-09T04:40:39;22.90;34.70
40534;DHT22;26233;51.894;10.192;2023-07-09T04:43:06;22.90;34.80
40534;DHT22;26233;51.894;10.192;2023-07-09T04:45:34;23.00;34.90
40534;DHT22;26233;51.894;10.192;2023-07-09T04:48:03;23.00;34.90
40534;DHT22;26233;51.894;10.192;2023-07-09T04:50:30;23.00;35.10
40534;DHT22;26233;51.894;10.192;2023-07-09T04:52:58;23.10;35.10
40534;DHT22;26233;51.894;10.192;2023-07-09T04:55:25;23.10;35.20
40534;DHT22;26233;51.894;10.192;2023-07-09T04:57:53;23.10;35.40
40534;DHT22;26233;51.894;10.192;2023-07-09T05:00:20;23.20;35.60
40534;DHT22;26233;51.894;10.192;2023-07-09T05:02:47;23.20;35.60
40534;DHT22;26233;51.894;10.192;2023-07-09T05:05:16;23.20;35.70
40534;DHT22;26233;51.894;10.192;2023-07-09T05:07:43;23.30;35.80
40534;DHT22;26233;51.894;10.192;2023-07-09T05:10:10;23.30;35.70
40534;DHT22;26233;51.894;10.192;2023-07-09T05:12:47;23.40;36.00
40534;DHT22;26233;51.894;10.192;2023-07-09T05:15:16;23.40;36.50
40534;DHT22;26233;51.894;10.192;2023-07-09T05:17:44;23.50;36.20
40534;DHT22;26233;51.894;10.192;2023-07-09T05:20:12;23.60;36.30
40534;DHT22;26233;51.894;10.192;2023-07-09T05:22:40;23.60;36.20
40534;DHT22;26233;51.894;10.192;2023-07-09T05:25:08;23.60;36.10
40534;DHT22;26233;51.894;10.192;2023-07-09T05:27:35;23.70;36.20
40534;DHT22;26233;51.894;10.192;2023-07-09T05:30:05;23.80;36.40
40534;DHT22;26233;51.894;10.192;2023-07-09T05:32:33;23.80;36.50
40534;DHT22;26233;51.894;10.192;2023-07-09T05:35:00;23.90;36.60
40534;DHT22;26233;51.894;10.192;2023-07-09T05:37:27;24.00;36.80
40534;DHT22;26233;51.894;10.192;2023-07-09T05:39:56;24.00;36.90
40534;DHT22;26233;51.894;10.192;2023-07-09T05:42:23;24.10;36.60
40534;DHT22;26233;51.894;10.192;2023-07-09T05:44:51;24.20;36.30
40534;DHT22;26233;51.894;10.192;2023-07-09T05:47:18;24.20;36.60
40534;DHT22;26233;51.894;10.192;2023-07-09T05:49:45;24.30;36.10
40534;DHT22;26233;51.894;10.192;2023-07-09T05:52:15;24.40;36.20
40534;DHT22;26233;51.894;10.192;2023-07-09T05:54:42;24.40;36.20
40534;DHT22;26233;51.894;10.192;2023-07-09T05:57:11;24.50;36.10
40534;DHT22;26233;51.894;10.192;2023-07-09T05:59:38;24.60;36.10
40534;DHT22;26233;51.894;10.192;2023-07-09T06:02:09;24.70;36.20
40534;DHT22;26233;51.894;10.192;2023-07-09T06:04:37;24.70;36.20
40534;DHT22;26233;51.894;10.192;2023-07-09T06:07:04;24.80;36.30
40534;DHT22;26233;51.894;10.192;2023-07-09T06:09:31;24.90;36.40
40534;DHT22;26233;51.894;10.192;2023-07-09T06:11:58;25.00;36.40
40534;DHT22;26233;51.894;10.192;2023-07-09T06:14:28;25.20;36.40
40534;DHT22;26233;51.894;10.192;2023-07-09T06:16:55;25.20;36.50
40534;DHT22;26233;51.894;10.192;2023-07-09T06:19:22;25.30;36.80
40534;DHT22;26233;51.894;10.192;2023-07-09T06:21:49;25.50;36.80
40534;DHT22;26233;51.894;10.192;2023-07-09T06:24:16;25.50;36.70
40534;DHT22;26233;51.894;10.192;2023-07-09T06:26:44;25.60;36.80
40534;DHT22;26233;51.894;10.192;2023-07-09T06:29:11;25.70;36.80
40534;DHT22;26233;51.894;10.192;2023-07-09T06:31:39;25.90;37.10
40534;DHT22;26233;51.894;10.192;2023-07-09T06:34:08;25.90;37.10
40534;DHT22;26233;51.894;10.192;2023-07-09T06:36:36;26.10;37.20
40534;DHT22;26233;51.894;10.192;2023-07-09T06:39:03;26.20;37.20
40534;DHT22;26233;51.894;10.192;2023-07-09T06:41:31;26.30;37.50
40534;DHT22;26233;51.894;10.192;2023-07-09T06:44:04;26.40;37.50
40534;DHT22;26233;51.894;10.192;2023-07-09T06:46:31;26.40;37.70
40534;DHT22;26233;51.894;10.192;2023-07-09T06:49:00;26.60;37.90
40534;DHT22;26233;51.894;10.192;2023-07-09T06:51:27;26.60;38.00
40534;DHT22;26233;51.894;10.192;2023-07-09T06:53:54;26.80;38.20
40534;DHT22;26233;51.894;10.192;2023-07-09T06:56:21;26.90;38.20
40534;DHT22;26233;51.894;10.192;2023-07-09T06:58:49;27.00;38.10
40534;DHT22;26233;51.894;10.192;2023-07-09T07:01:16;27.10;38.30
40534;DHT22;26233;51.894;10.192;2023-07-09T07:03:43;27.30;38.30
40534;DHT22;26233;51.894;10.192;2023-07-09T07:06:11;27.40;38.70
40534;DHT22;26233;51.894;10.192;2023-07-09T07:08:38;27.60;38.60
40534;DHT22;26233;51.894;10.192;2023-07-09T07:11:06;27.80;38.60
40534;DHT22;26233;51.894;10.192;2023-07-09T07:13:35;27.90;38.70
40534;DHT22;26233;51.894;10.192;2023-07-09T07:16:04;28.10;38.30
40534;DHT22;26233;51.894;10.192;2023-07-09T07:18:32;28.30;38.20
40534;DHT22;26233;51.894;10.192;2023-07-09T07:21:00;28.50;38.20
40534;DHT22;26233;51.894;10.192;2023-07-09T07:23:29;28.70;38.80
40534;DHT22;26233;51.894;10.192;2023-07-09T07:25:56;29.00;39.10
40534;DHT22;26233;51.894;10.192;2023-07-09T07:28:23;29.50;40.20
40534;DHT22;26233;51.894;10.192;2023-07-09T07:30:58;30.00;39.50
40534;DHT22;26233;51.894;10.192;2023-07-09T07:33:26;30.60;39.20
40534;DHT22;26233;51.894;10.192;2023-07-09T07:35:53;31.20;39.50
40534;DHT22;26233;51.894;10.192;2023-07-09T07:38:20;31.90;39.30
40534;DHT22;26233;51.894;10.192;2023-07-09T07:40:49;32.50;38.90
40534;DHT22;26233;51.894;10.192;2023-07-09T07:43:16;33.00;38.20
40534;DHT22;26233;51.894;10.192;2023-07-09T07:45:44;33.60;37.30
40534;DHT22;26233;51.894;10.192;2023-07-09T07:48:11;34.10;36.70
40534;DHT22;26233;51.894;10.192;2023-07-09T07:50:39;34.60;36.10
40534;DHT22;26233;51.894;10.192;2023-07-09T07:53:06;35.10;35.70
40534;DHT22;26233;51.894;10.192;2023-07-09T07:55:34;35.50;35.20
40534;DHT22;26233;51.894;10.192;2023-07-09T07:58:04;35.90;34.50
40534;DHT22;26233;51.894;10.192;2023-07-09T08:00:32;36.30;34.60
40534;DHT22;26233;51.894;10.192;2023-07-09T08:02:59;36.70;33.80
40534;DHT22;26233;51.894;10.192;2023-07-09T08:05:28;37.00;33.40
40534;DHT22;26233;51.894;10.192;2023-07-09T08:07:56;37.30;33.50
40534;DHT22;26233;51.894;10.192;2023-07-09T08:10:23;37.60;32.90
40534;DHT22;26233;51.894;10.192;2023-07-09T08:12:50;37.90;32.70
40534;DHT22;26233;51.894;10.192;2023-07-09T08:15:23;38.20;32.00
40534;DHT22;26233;51.894;10.192;2023-07-09T08:17:50;38.50;32.00
40534;DHT22;26233;51.894;10.192;2023-07-09T08:20:17;38.80;31.70
40534;DHT22;26233;51.894;10.192;2023-07-09T08:22:44;39.00;31.80
40534;DHT22;26233;51.894;10.192;2023-07-09T08:25:12;39.20;30.90
40534;DHT22;26233;51.894;10.192;2023-07-09T08:27:39;39.50;30.90
40534;DHT22;26233;51.894;10.192;2023-07-09T08:30:07;39.70;30.80
40534;DHT22;26233;51.894;10.192;2023-07-09T08:32:36;40.00;29.90
40534;DHT22;26233;51.894;10.192;2023-07-09T08:35:04;40.20;29.80
40534;DHT22;26233;51.894;10.192;2023-07-09T08:37:31;40.40;29.80
40534;DHT22;26233;51.894;10.192;2023-07-09T08:39:58;40.70;29.90
40534;DHT22;26233;51.894;10.192;2023-07-09T08:42:29;40.80;29.50
40534;DHT22;26233;51.894;10.192;2023-07-09T08:45:23;41.00;29.10
40534;DHT22;26233;51.894;10.192;2023-07-09T08:48:01;41.10;28.60
40534;DHT22;26233;51.894;10.192;2023-07-09T08:50:35;41.30;29.30
40534;DHT22;26233;51.894;10.192;2023-07-09T08:53:05;41.40;28.60
40534;DHT22;26233;51.894;10.192;2023-07-09T08:55:38;41.60;28.30
40534;DHT22;26233;51.894;10.192;2023-07-09T08:58:11;41.70;28.40
40534;DHT22;26233;51.894;10.192;2023-07-09T09:00:44;41.70;28.30
40534;DHT22;26233;51.894;10.192;2023-07-09T09:03:27;41.70;28.30
40534;DHT22;26233;51.894;10.192;2023-07-09T09:05:57;41.70;27.90
40534;DHT22;26233;51.894;10.192;2023-07-09T09:08:33;41.70;28.00
40534;DHT22;26233;51.894;10.192;2023-07-09T09:11:13;41.70;27.60
40534;DHT22;26233;51.894;10.192;2023-07-09T09:13:45;41.60;27.80
40534;DHT22;26233;51.894;10.192;2023-07-09T09:16:21;41.60;28.10
40534;DHT22;26233;51.894;10.192;2023-07-09T09:18:55;41.60;27.90
40534;DHT22;26233;51.894;10.192;2023-07-09T09:21:26;41.60;27.90
40534;DHT22;26233;51.894;10.192;2023-07-09T09:24:02;41.70;28.10
40534;DHT22;26233;51.894;10.192;2023-07-09T09:26:43;41.70;27.70
40534;DHT22;26233;51.894;10.192;2023-07-09T09:29:11;41.60;27.90
40534;DHT22;26233;51.894;10.192;2023-07-09T09:31:41;41.60;27.60
40534;DHT22;26233;51.894;10.192;2023-07-09T09:34:19;41.60;27.40
40534;DHT22;26233;51.894;10.192;2023-07-09T09:36:47;41.60;27.50
40534;DHT22;26233;51.894;10.192;2023-07-09T09:39:16;41.60;27.50
40534;DHT22;26233;51.894;10.192;2023-07-09T09:41:44;41.70;27.40
40534;DHT22;26233;51.894;10.192;2023-07-09T09:44:18;41.70;27.50
40534;DHT22;26233;51.894;10.192;2023-07-09T09:46:48;41.70;27.40
40534;DHT22;26233;51.894;10.192;2023-07-09T09:49:17;41.70;27.30
40534;DHT22;26233;51.894;10.192;2023-07-09T09:51:46;41.70;27.20
40534;DHT22;26233;51.894;10.192;2023-07-09T09:54:18;41.70;27.20
40534;DHT22;26233;51.894;10.192;2023-07-09T09:56:49;41.80;27.30
40534;DHT22;26233;51.894;10.192;2023-07-09T09:59:19;41.90;27.20
40534;DHT22;26233;51.894;10.192;2023-07-09T10:01:47;42.00;27.20
40534;DHT22;26233;51.894;10.192;2023-07-09T10:04:24;42.10;27.50
40534;DHT22;26233;51.894;10.192;2023-07-09T10:06:54;42.20;26.80
40534;DHT22;26233;51.894;10.192;2023-07-09T10:09:31;42.40;27.10
40534;DHT22;26233;51.894;10.192;2023-07-09T10:12:14;42.50;26.90
40534;DHT22;26233;51.894;10.192;2023-07-09T10:14:54;42.60;26.70
40534;DHT22;26233;51.894;10.192;2023-07-09T10:17:34;42.80;26.60
40534;DHT22;26233;51.894;10.192;2023-07-09T10:20:14;42.80;26.20
40534;DHT22;26233;51.894;10.192;2023-07-09T10:22:50;42.90;26.20
40534;DHT22;26233;51.894;10.192;2023-07-09T10:25:31;42.90;26.10
40534;DHT22;26233;51.894;10.192;2023-07-09T10:28:28;42.90;25.90
40534;DHT22;26233;51.894;10.192;2023-07-09T10:31:13;43.00;26.00
40534;DHT22;26233;51.894;10.192;2023-07-09T10:33:55;43.00;25.40
40534;DHT22;26233;51.894;10.192;2023-07-09T10:36:41;43.10;25.30
40534;DHT22;26233;51.894;10.192;2023-07-09T10:39:17;43.00;25.30
40534;DHT22;26233;51.894;10.192;2023-07-09T10:41:48;42.90;25.40
40534;DHT22;26233;51.894;10.192;2023-07-09T10:44:20;42.90;25.50
40534;DHT22;26233;51.894;10.192;2023-07-09T10:46:54;42.80;25.40
40534;DHT22;26233;51.894;10.192;2023-07-09T10:49:30;42.80;25.40
40534;DHT22;26233;51.894;10.192;2023-07-09T10:52:05;42.60;25.00
40534;DHT22;26233;51.894;10.192;2023-07-09T10:54:40;42.60;25.50
40534;DHT22;26233;51.894;10.192;2023-07-09T10:57:16;42.60;25.40
40534;DHT22;26233;51.894;10.192;2023-07-09T10:59:47;42.70;25.20
40534;DHT22;26233;51.894;10.192;2023-07-09T11:02:21;42.70;25.10
40534;DHT22;26233;51.894;10.192;2023-07-09T11:04:53;42.70;25.20
40534;DHT22;26233;51.894;10.192;2023-07-09T11:07:28;42.60;25.00
40534;DHT22;26233;51.894;10.192;2023-07-09T11:09:58;42.60;25.10
40534;DHT22;26233;51.894;10.192;2023-07-09T11:12:30;42.70;25.40
40534;DHT22;26233;51.894;10.192;2023-07-09T11:15:04;42.70;25.40
40534;DHT22;26233;51.894;10.192;2023-07-09T11:17:35;42.70;25.20
40534;DHT22;26233;51.894;10.192;2023-07-09T11:20:15;42.90;25.30
40534;DHT22;26233;51.894;10.192;2023-07-09T11:22:51;42.90;25.00
40534;DHT22;26233;51.894;10.192;2023-07-09T11:25:30;43.00;24.60
40534;DHT22;26233;51.894;10.192;2023-07-09T11:28:06;43.10;24.30
40534;DHT22;26233;51.894;10.192;2023-07-09T11:30:46;43.20;25.00
40534;DHT22;26233;51.894;10.192;2023-07-09T11:33:17;43.30;24.30
40534;DHT22;26233;51.894;10.192;2023-07-09T11:35:47;43.30;24.60
40534;DHT22;26233;51.894;10.192;2023-07-09T11:38:20;43.30;24.30
40534;DHT22;26233;51.894;10.192;2023-07-09T11:40:49;43.30;24.30
40534;DHT22;26233;51.894;10.192;2023-07-09T11:43:28;43.20;24.10
40534;DHT22;26233;51.894;10.192;2023-07-09T11:46:07;43.10;24.10
40534;DHT22;26233;51.894;10.192;2023-07-09T11:48:39;43.10;24.20
40534;DHT22;26233;51.894;10.192;2023-07-09T11:51:13;43.10;24.10
40534;DHT22;26233;51.894;10.192;2023-07-09T11:53:46;43.10;23.60
40534;DHT22;26233;51.894;10.192;2023-07-09T11:56:18;43.10;23.60
40534;DHT22;26233;51.894;10.192;2023-07-09T11:58:49;43.00;23.50
40534;DHT22;26233;51.894;10.192;2023-07-09T12:01:19;42.90;23.30
40534;DHT22;26233;51.894;10.192;2023-07-09T12:03:49;42.80;23.80
40534;DHT22;26233;51.894;10.192;2023-07-09T12:06:20;42.60;23.00
40534;DHT22;26233;51.894;10.192;2023-07-09T12:08:51;42.60;23.40
40534;DHT22;26233;51.894;10.192;2023-07-09T12:11:20;42.50;23.20
40534;DHT22;26233;51.894;10.192;2023-07-09T12:13:48;42.50;23.40
40534;DHT22;26233;51.894;10.192;2023-07-09T12:16:27;42.40;23.20
40534;DHT22;26233;51.894;10.192;2023-07-09T12:18:55;42.30;22.80
40534;DHT22;26233;51.894;10.192;2023-07-09T12:21:23;42.30;22.80
40534;DHT22;26233;51.894;10.192;2023-07-09T12:23:54;42.30;23.10
40534;DHT22;26233;51.894;10.192;2023-07-09T12:26:22;42.30;22.80
40534;DHT22;26233;51.894;10.192;2023-07-09T12:28:50;42.30;22.90
40534;DHT22;26233;51.894;10.192;2023-07-09T12:31:18;42.20;22.60
40534;DHT22;26233;51.894;10.192;2023-07-09T12:33:48;42.20;22.70
40534;DHT22;26233;51.894;10.192;2023-07-09T12:36:17;42.10;22.70
40534;DHT22;26233;51.894;10.192;2023-07-09T12:38:48;42.00;23.10
40534;DHT22;26233;51.894;10.192;2023-07-09T12:41:23;41.90;22.70
40534;DHT22;26233;51.894;10.192;2023-07-09T12:43:52;41.80;22.50
40534;DHT22;26233;51.894;10.192;2023-07-09T12:46:21;41.70;22.90
40534;DHT22;26233;51.894;10.192;2023-07-09T12:48:49;41.60;22.70
40534;DHT22;26233;51.894;10.192;2023-07-09T12:51:21;41.50;22.60
40534;DHT22;26233;51.894;10.192;2023-07-09T12:54:00;41.40;22.60
40534;DHT22;26233;51.894;10.192;2023-07-09T12:56:34;41.40;22.60
40534;DHT22;26233;51.894;10.192;2023-07-09T12:59:02;41.30;22.40
40534;DHT22;26233;51.894;10.192;2023-07-09T13:01:35;41.10;22.80
40534;DHT22;26233;51.894;10.192;2023-07-09T13:04:02;41.00;22.60
40534;DHT22;26233;51.894;10.192;2023-07-09T13:06:34;41.00;22.90
40534;DHT22;26233;51.894;10.192;2023-07-09T13:09:11;40.90;22.70
40534;DHT22;26233;51.894;10.192;2023-07-09T13:11:45;40.90;22.60
40534;DHT22;26233;51.894;10.192;2023-07-09T13:14:18;40.80;22.60
40534;DHT22;26233;51.894;10.192;2023-07-09T13:16:47;40.70;23.00
40534;DHT22;26233;51.894;10.192;2023-07-09T13:19:14;40.60;22.60
40534;DHT22;26233;51.894;10.192;2023-07-09T13:21:42;40.50;22.60
40534;DHT22;26233;51.894;10.192;2023-07-09T13:24:15;40.40;22.70
40534;DHT22;26233;51.894;10.192;2023-07-09T13:26:54;40.30;22.90
40534;DHT22;26233;51.894;10.192;2023-07-09T13:29:24;40.30;23.00
40534;DHT22;26233;51.894;10.192;2023-07-09T13:31:52;40.10;23.00
40534;DHT22;26233;51.894;10.192;2023-07-09T13:34:22;40.10;22.90
40534;DHT22;26233;51.894;10.192;2023-07-09T13:36:51;40.00;22.90
40534;DHT22;26233;51.894;10.192;2023-07-09T13:39:19;40.00;22.60
40534;DHT22;26233;51.894;10.192;2023-07-09T13:41:48;39.90;22.70
40534;DHT22;26233;51.894;10.192;2023-07-09T13:44:19;39.90;22.50
40534;DHT22;26233;51.894;10.192;2023-07-09T13:46:47;39.80;22.80
40534;DHT22;26233;51.894;10.192;2023-07-09T13:49:15;39.70;22.90
40534;DHT22;26233;51.894;10.192;2023-07-09T13:51:44;39.70;22.80
40534;DHT22;26233;51.894;10.192;2023-07-09T13:54:16;39.70;22.60
40534;DHT22;26233;51.894;10.192;2023-07-09T13:56:44;39.60;22.90
40534;DHT22;26233;51.894;10.192;2023-07-09T13:59:17;39.50;23.20
40534;DHT22;26233;51.894;10.192;2023-07-09T14:01:47;39.40;22.80
40534;DHT22;26233;51.894;10.192;2023-07-09T14:04:16;39.40;22.90
40534;DHT22;26233;51.894;10.192;2023-07-09T14:06:44;39.40;22.80
40534;DHT22;26233;51.894;10.192;2023-07-09T14:09:12;39.30;22.90
40534;DHT22;26233;51.894;10.192;2023-07-09T14:11:43;39.30;22.90
40534;DHT22;26233;51.894;10.192;2023-07-09T14:14:18;39.30;22.90
40534;DHT22;26233;51.894;10.192;2023-07-09T14:16:48;39.30;22.70
40534;DHT22;26233;51.894;10.192;2023-07-09T14:19:17;39.20;22.70
40534;DHT22;26233;51.894;10.192;2023-07-09T14:21:46;39.10;22.60
40534;DHT22;26233;51.894;10.192;2023-07-09T14:24:25;39.20;23.20
40534;DHT22;26233;51.894;10.192;2023-07-09T14:26:56;39.20;22.70
40534;DHT22;26233;51.894;10.192;2023-07-09T14:29:25;39.10;22.60
40534;DHT22;26233;51.894;10.192;2023-07-09T14:31:52;39.10;22.60
40534;DHT22;26233;51.894;10.192;2023-07-09T14:34:21;39.10;22.60
40534;DHT22;26233;51.894;10.192;2023-07-09T14:36:53;39.00;22.60
40534;DHT22;26233;51.894;10.192;2023-07-09T14:39:21;39.00;23.10
40534;DHT22;26233;51.894;10.192;2023-07-09T14:41:48;39.00;22.70
40534;DHT22;26233;51.894;10.192;2023-07-09T14:44:25;39.00;22.80
40534;DHT22;26233;51.894;10.192;2023-07-09T14:46:55;38.90;22.50
40534;DHT22;26233;51.894;10.192;2023-07-09T14:49:24;39.00;22.60
40534;DHT22;26233;51.894;10.192;2023-07-09T14:51:52;39.00;22.40
40534;DHT22;26233;51.894;10.192;2023-07-09T14:54:21;38.90;22.30
40534;DHT22;26233;51.894;10.192;2023-07-09T14:56:50;38.90;22.70
40534;DHT22;26233;51.894;10.192;2023-07-09T14:59:17;38.90;22.70
40534;DHT22;26233;51.894;10.192;2023-07-09T15:01:46;38.90;22.70
40534;DHT22;26233;51.894;10.192;2023-07-09T15:04:27;38.90;22.70
40534;DHT22;26233;51.894;10.192;2023-07-09T15:06:56;38.80;22.90
40534;DHT22;26233;51.894;10.192;2023-07-09T15:09:25;38.80;22.60
40534;DHT22;26233;51.894;10.192;2023-07-09T15:11:54;38.80;23.10
40534;DHT22;26233;51.894;10.192;2023-07-09T15:14:23;38.80;23.10
40534;DHT22;26233;51.894;10.192;2023-07-09T15:16:53;38.80;23.10
40534;DHT22;26233;51.894;10.192;2023-07-09T15:19:21;38.80;23.30
40534;DHT22;26233;51.894;10.192;2023-07-09T15:21:49;38.70;23.20
40534;DHT22;26233;51.894;10.192;2023-07-09T15:24:21;38.60;23.40
40534;DHT22;26233;51.894;10.192;2023-07-09T15:26:52;38.50;23.60
40534;DHT22;26233;51.894;10.192;2023-07-09T15:29:20;38.40;23.40
40534;DHT22;26233;51.894;10.192;2023-07-09T15:31:47;38.40;23.60